Уральск (Ак-Жол)

Карта отелей и гостиниц, располагающихся рядом с аэропортом Уральск (Ак-Жол) :

Уральск (Ак-Жол) Западно-Казахстанская область 51° 9' 3.3588" N, 51° 32' 30.0588" E
Код аэродрома ИКАО
UARR
Код аэродрома RU
УАРР
Координаты
N51.15093° E051.54168°
Превышение над уровнем моря
38
Основная полоса
04L/22R
Курс магнитный
041/221
Длина основной ВПП
2400
Ширина основной ВПП
42
Покрытие основной ВПП
Твёрдое (бетон)
Освещение ВПП
Постоянное
Тип: 
Аэродром
Класс аэродрома: 
Международный
Принадлежность: 
ГА
Статус: 
Действующий
Страна: 
Казахстан
Регион: 
Западно-Казахстанская область
Дополнительная информация: 
Эксплуатант: ТОО "Международный аэропорт «Орал»". Нкр.=(500)м. ДПРМ:442-"SK/UR", БПРМ:214-"S/U". По состоянию на 14.08.2011 ВПП находится в неудовлетворительном состоянии для приема ВС. ВПП нуждается в срочном капитальном ремонте. Так, по результатам инспекции британской консалтинговой инженерной компанией "Mott Macdonald", центральная часть ВПП остается неровной. В плитах много выемок, трещин, мест просадки. Это приводит к повреждению ВС, их ремонту и увеличению количества рейсов, задержанных по технической причине.
Погода: 

Авиационная погода в Уральске

Регион: 
Погода METAR: 
UARR 271500Z 23006MPS 0400 R22/1100D FG VV002 00/00 Q1001 R22/590145 NOSIG RMK QBB070 QFE747/0997
Время наблюдения
2021-02-27T15:00:00Z
Температура C
0.0
Точка росы
0.0
Направление ветра
230
Скорость ветра (узлы)
12
Метео видимость
0.25
Явления погоды
FG
Условия полета
LIFR
Аэропорт подробнее: 

Найти трансфер

С помощью этой формы Вы можете найти трансфер из аэропорта Уральск (Ак-Жол) в город, аэропорт или вокзал:

Карта места

Javascript is required to view this map.

Погода в аэропортах:

Авиационная погода в Емельяново

Регион: 
Погода METAR: 
UNKL 271500Z 24003MPS 5000 -SN SCT015 M20/M24 Q1030 R29/450245 NOSIG RMK QFE747
Время наблюдения
2021-02-27T15:00:00Z
Температура C
-20.0
Точка росы
-24.0
Направление ветра
240
Скорость ветра (узлы)
6
Метео видимость
3.11
Явления погоды
-SN
Условия полета
MVFR
Аэропорт подробнее: 

Авиационная погода в Самаре

Регион: 
Погода METAR: 
UWWW 271500Z 31007MPS 0900 0800SE R15/2000 +SN VV005 M01/M02 Q0997 R15/550235 NOSIG RMK QFE736/0982
Время наблюдения
2021-02-27T15:00:00Z
Температура C
-1.0
Точка росы
-2.0
Направление ветра
310
Скорость ветра (узлы)
14
Метео видимость
0.56
Явления погоды
+SN
Условия полета
LIFR
Аэропорт подробнее: 

Авиационная погода в Нижнекамске

Регион: 
Погода METAR: 
UWKE 271500Z 04006MPS 4800 -SN OVC028 M12/M13 Q0998 R03/421040 NOSIG RMK QFE732/0976
Время наблюдения
2021-02-27T15:00:00Z
Температура C
-12.0
Точка росы
-13.0
Направление ветра
40
Скорость ветра (узлы)
12
Метео видимость
2.98
Явления погоды
-SN
Условия полета
IFR
Аэропорт подробнее: 

Авиационная погода в Казани

Регион: 
Погода METAR: 
UWKD 271500Z 36007MPS 3500 -SN BLSN OVC030 M13/M16 Q1001 R29/420345 NOSIG RMK QFE740/0987
Время наблюдения
2021-02-27T15:00:00Z
Температура C
-13.0
Точка росы
-16.0
Направление ветра
360
Скорость ветра (узлы)
14
Метео видимость
2.17
Явления погоды
-SN BLSN
Условия полета
IFR
Аэропорт подробнее: